East Masonville, New York
Current Conditions -  °F | °C
As of 9:53 AM on Friday 28 Nov 2014 (Local Time) from KBGM Reporting Station
Few Clouds Few Clouds  
Wind Chill: 11°   Ceiling: Unl
Heat Index: 23°   Visibility: 10mi
Dew Point: 12°   Wind: 14mph
Humidity: 63%   Direction: 310°NW
Pressure: 30.14"   Gusts: 22mph
Location:  42.2309°N, 75.2943°W
Report Text: KBGM 281453Z 31012G19KT 10SM FEW030 M05/M11 A3014 RMK AO2 SLP229 60000 T10501111 51015
Loading
Personal Weather Stations






























Interactive Weather Map New forecast layout! Learn more

10-Day Weather Forecast

Advertisements
Track Severe Weather on mobile